Time;durP1;ratioP1;P1;durP2;ratioP2;P2;SDS_P1;SDS_P2;PMS_P1;PMS_P2;Temp;Humidity;BMP_temperature;BMP_pressure;BME280_temperature;BME280_humidity;BME280_pressure;Samples;Min_cycle;Max_cycle;Signal;HPM_P1;HPM_P2
2022/05/04 00:01:40;;;;;;;8.82;4.78;;;8.10;89.50;;;;;;5033367;28;20210;-62
2022/05/04 00:04:07;;;;;;;11.82;4.82;;;8.00;89.60;;;;;;5033366;28;20249;-62
2022/05/04 00:06:34;;;;;;;9.20;5.20;;;8.00;90.00;;;;;;5033277;28;20583;-62
2022/05/04 00:09:01;;;;;;;16.45;4.90;;;8.00;90.10;;;;;;5033404;28;20211;-62
2022/05/04 00:11:30;;;;;;;9.27;5.10;;;7.90;90.20;;;;;;5033285;28;20211;-62
2022/05/04 00:13:57;;;;;;;17.00;6.50;;;7.90;90.30;;;;;;5033436;28;20310;-62
2022/05/04 00:16:24;;;;;;;12.50;5.95;;;7.90;90.50;;;;;;5033470;28;20209;-62
2022/05/04 00:18:51;;;;;;;8.88;5.32;;;7.90;90.70;;;;;;5033335;28;20205;-62
2022/05/04 00:21:18;;;;;;;9.20;5.35;;;7.80;90.90;;;;;;5033138;28;20203;-62
2022/05/04 00:23:45;;;;;;;16.38;4.93;;;7.80;91.00;;;;;;5032951;28;20592;-62
2022/05/04 00:26:12;;;;;;;15.52;5.90;;;7.80;91.10;;;;;;5036750;28;20579;-62
2022/05/04 00:28:40;;;;;;;12.55;6.47;;;7.70;91.30;;;;;;5037663;28;20581;-62
2022/05/04 00:31:07;;;;;;;7.88;5.45;;;7.70;91.50;;;;;;5037201;28;20209;-63
2022/05/04 00:33:34;;;;;;;14.45;6.50;;;7.70;91.60;;;;;;5036927;28;20726;-62
2022/05/04 00:36:02;;;;;;;11.30;7.15;;;7.60;91.80;;;;;;5037069;28;20202;-62
2022/05/04 00:38:29;;;;;;;9.50;5.60;;;7.50;92.00;;;;;;5036942;28;20207;-61
2022/05/04 00:40:56;;;;;;;10.80;5.38;;;7.50;92.20;;;;;;5038337;28;20209;-61
2022/05/04 00:43:24;;;;;;;8.40;4.88;;;7.50;92.60;;;;;;5038467;28;20340;-62
2022/05/04 00:45:53;;;;;;;9.63;6.07;;;7.50;92.80;;;;;;5038250;28;20305;-62
2022/05/04 00:48:20;;;;;;;12.20;6.53;;;7.40;92.90;;;;;;5037917;28;20208;-62
2022/05/04 00:50:49;;;;;;;8.30;5.03;;;7.40;93.10;;;;;;5037540;28;20213;-61
2022/05/04 00:53:17;;;;;;;11.23;4.97;;;7.30;93.20;;;;;;5037347;28;20242;-61
2022/05/04 00:55:45;;;;;;;10.77;5.40;;;7.30;93.50;;;;;;5036809;28;20705;-62
2022/05/04 01:01:01;;;;;;;8.52;5.97;;;7.30;93.70;;;;;;5036464;28;20705;-62
2022/05/04 01:03:28;;;;;;;10.65;5.43;;;7.20;93.80;;;;;;5036576;28;20223;-63
2022/05/04 01:05:56;;;;;;;10.13;4.85;;;7.10;94.00;;;;;;5036312;28;20208;-62
2022/05/04 01:08:23;;;;;;;14.13;5.10;;;7.10;94.20;;;;;;5036727;28;20207;-61
2022/05/04 01:10:50;;;;;;;12.27;5.05;;;7.10;94.30;;;;;;5037144;28;20207;-62
2022/05/04 01:13:20;;;;;;;10.98;5.30;;;7.10;94.50;;;;;;5036178;28;20223;-62
2022/05/04 01:15:47;;;;;;;7.05;4.30;;;7.00;94.60;;;;;;5036935;28;20645;-62
2022/05/04 01:18:16;;;;;;;13.60;5.13;;;7.00;94.80;;;;;;5037876;28;20686;-62
2022/05/04 01:20:43;;;;;;;10.73;4.60;;;7.00;94.90;;;;;;5036469;28;20214;-62
2022/05/04 01:23:12;;;;;;;8.77;4.90;;;7.00;94.90;;;;;;5035757;28;20249;-62
2022/05/04 01:25:39;;;;;;;13.57;6.18;;;7.00;95.10;;;;;;5036010;28;20541;-62
2022/05/04 01:28:06;;;;;;;8.40;4.70;;;7.00;95.30;;;;;;5035523;28;20206;-62
2022/05/04 01:30:35;;;;;;;9.00;4.90;;;7.00;95.30;;;;;;5040049;28;20206;-63
2022/05/04 01:33:02;;;;;;;10.57;5.03;;;7.00;95.40;;;;;;5047386;28;20226;-62
2022/05/04 01:35:29;;;;;;;15.63;5.85;;;6.90;95.50;;;;;;5035712;28;20229;-62
2022/05/04 01:37:57;;;;;;;6.68;4.97;;;6.90;95.60;;;;;;5034867;28;20256;-62
2022/05/04 01:40:25;;;;;;;11.15;4.97;;;6.90;95.70;;;;;;5035808;28;20202;-62
2022/05/04 01:42:52;;;;;;;12.48;4.88;;;6.90;95.80;;;;;;5035883;28;20199;-62
2022/05/04 01:45:19;;;;;;;7.15;4.45;;;6.80;95.90;;;;;;5036035;28;20199;-62
2022/05/04 01:47:50;;;;;;;12.23;5.72;;;6.80;96.00;;;;;;5035418;28;20682;-61
2022/05/04 01:50:17;;;;;;;11.70;5.25;;;6.70;96.20;;;;;;5035792;28;20202;-62
2022/05/04 01:52:44;;;;;;;8.27;4.82;;;6.70;96.40;;;;;;5035476;28;20576;-60
2022/05/04 01:55:13;;;;;;;8.57;4.35;;;6.70;96.80;;;;;;5038161;28;20631;-62
2022/05/04 01:57:42;;;;;;;9.23;4.90;;;6.70;96.70;;;;;;5036548;28;20206;-61
2022/05/04 02:00:10;;;;;;;10.55;5.75;;;6.70;96.70;;;;;;5035614;28;20581;-61
2022/05/04 02:02:38;;;;;;;15.43;5.75;;;6.60;96.70;;;;;;5035252;28;20500;-61
2022/05/04 02:05:05;;;;;;;12.25;7.05;;;6.60;96.90;;;;;;5035995;28;20198;-62
2022/05/04 02:07:35;;;;;;;7.80;5.57;;;6.60;97.00;;;;;;5035204;28;20690;-61
2022/05/04 02:10:03;;;;;;;9.45;4.72;;;6.60;97.10;;;;;;5035151;28;20202;-61
2022/05/04 02:12:30;;;;;;;9.77;5.20;;;6.50;97.10;;;;;;5035145;28;20325;-61
2022/05/04 02:14:59;;;;;;;12.25;5.75;;;6.50;97.20;;;;;;5035164;28;20222;-63
2022/05/04 02:17:26;;;;;;;10.48;5.32;;;6.50;97.50;;;;;;5034769;28;20222;-60
2022/05/04 02:19:53;;;;;;;10.27;5.60;;;6.40;97.60;;;;;;5035172;28;20561;-62
2022/05/04 02:22:20;;;;;;;9.13;5.40;;;6.40;97.70;;;;;;5034575;28;20198;-62
2022/05/04 02:24:47;;;;;;;15.93;6.45;;;6.40;97.90;;;;;;5035282;28;20234;-61
2022/05/04 02:27:14;;;;;;;6.63;4.28;;;6.40;97.90;;;;;;5034541;28;20685;-62
2022/05/04 02:29:41;;;;;;;7.20;4.68;;;6.30;98.00;;;;;;5034532;28;20671;-62
2022/05/04 02:32:10;;;;;;;9.73;5.40;;;6.30;98.10;;;;;;5034446;28;20674;-62
2022/05/04 02:37:54;;;;;;;12.20;5.00;;;6.30;98.20;;;;;;5034375;28;20276;-62
2022/05/04 02:40:11;;;;;;;20.02;5.20;;;6.20;98.50;;;;;;5034561;28;20283;-61
2022/05/04 02:42:39;;;;;;;12.88;5.70;;;6.20;98.70;;;;;;5035416;28;20209;-62
2022/05/04 02:45:07;;;;;;;12.68;5.80;;;6.20;98.90;;;;;;5036161;28;20198;-62
2022/05/04 02:47:35;;;;;;;10.40;5.93;;;6.20;99.00;;;;;;5035412;28;20294;-62
2022/05/04 02:50:02;;;;;;;10.63;5.65;;;6.20;99.00;;;;;;5035648;28;20210;-62
2022/05/04 02:52:29;;;;;;;16.35;6.15;;;6.10;99.00;;;;;;5036053;28;20209;-62
2022/05/04 02:54:56;;;;;;;10.93;5.50;;;6.10;99.20;;;;;;5035942;28;20230;-62
2022/05/04 02:57:23;;;;;;;14.15;7.25;;;6.10;99.50;;;;;;5035778;28;20206;-62
2022/05/04 02:59:51;;;;;;;15.43;6.28;;;6.10;99.60;;;;;;5036794;28;20202;-61
2022/05/04 03:02:30;;;;;;;11.38;4.85;;;6.10;99.60;;;;;;5035589;28;20213;-61
2022/05/04 03:05:00;;;;;;;11.30;6.15;;;6.10;99.60;;;;;;5034803;28;20223;-61
2022/05/04 03:07:28;;;;;;;11.35;5.43;;;6.10;99.60;;;;;;5035410;28;20186;-61
2022/05/04 03:09:56;;;;;;;15.48;6.47;;;6.10;99.80;;;;;;5035070;28;20202;-62
2022/05/04 03:12:23;;;;;;;9.68;4.63;;;6.10;99.80;;;;;;5035123;28;20202;-61
2022/05/04 03:14:50;;;;;;;10.48;5.60;;;6.00;99.90;;;;;;5034541;28;20230;-60
2022/05/04 03:17:18;;;;;;;12.18;5.72;;;6.00;99.90;;;;;;5034574;28;20206;-61
2022/05/04 03:19:45;;;;;;;11.27;5.93;;;6.00;99.90;;;;;;5034679;28;20631;-62
2022/05/04 03:22:14;;;;;;;12.45;6.05;;;6.00;99.90;;;;;;5034943;28;20203;-61
2022/05/04 03:24:41;;;;;;;11.48;5.55;;;5.90;99.90;;;;;;5057574;22;20238;-59
2022/05/04 03:27:08;;;;;;;9.85;5.72;;;6.00;99.90;;;;;;5033729;28;20207;-59
2022/05/04 03:29:36;;;;;;;13.45;5.47;;;6.00;99.90;;;;;;5033457;28;20239;-59
2022/05/04 03:32:04;;;;;;;10.25;5.13;;;6.10;99.90;;;;;;5033575;28;20213;-60
2022/05/04 03:34:31;;;;;;;14.25;5.07;;;6.10;99.90;;;;;;5033518;28;20230;-59
2022/05/04 03:36:59;;;;;;;7.03;5.00;;;6.10;99.90;;;;;;5033281;28;20682;-58
2022/05/04 03:39:27;;;;;;;14.95;5.75;;;6.10;99.90;;;;;;5033575;28;20245;-59
2022/05/04 03:41:54;;;;;;;8.65;4.82;;;6.10;99.90;;;;;;5033234;28;20209;-59
2022/05/04 03:44:21;;;;;;;12.43;5.63;;;6.10;99.90;;;;;;5033127;28;20724;-59
2022/05/04 03:46:50;;;;;;;8.65;5.22;;;6.10;99.90;;;;;;5033122;28;20202;-60
2022/05/04 03:49:18;;;;;;;18.40;5.68;;;6.10;99.90;;;;;;5033006;28;20202;-59
2022/05/04 03:51:46;;;;;;;11.70;5.40;;;6.10;99.90;;;;;;5033931;28;20206;-59
2022/05/04 03:54:13;;;;;;;8.88;4.25;;;6.20;99.90;;;;;;5033299;28;20227;-60
2022/05/04 03:56:43;;;;;;;10.07;4.60;;;6.20;99.90;;;;;;5033002;28;20218;-60
2022/05/04 03:59:10;;;;;;;11.07;6.22;;;6.20;99.90;;;;;;5033367;28;20209;-59
2022/05/04 04:01:37;;;;;;;12.77;6.05;;;6.20;99.90;;;;;;5034102;28;20198;-59
2022/05/04 04:04:05;;;;;;;9.25;5.13;;;6.20;99.90;;;;;;5032977;28;20228;-59
2022/05/04 04:09:44;;;;;;;13.02;5.88;;;6.20;99.90;;;;;;5111720;27;20538;-57
2022/05/04 04:12:12;;;;;;;13.85;6.43;;;6.30;99.90;;;;;;5111065;28;20222;-58
2022/05/04 04:14:39;;;;;;;10.30;5.07;;;6.30;99.90;;;;;;5111131;28;20586;-57
2022/05/04 04:17:06;;;;;;;8.85;4.85;;;6.30;99.90;;;;;;5110646;28;20668;-58
2022/05/04 04:19:33;;;;;;;10.88;5.43;;;6.40;99.90;;;;;;5111096;28;20206;-58
2022/05/04 04:21:59;;;;;;;16.08;5.75;;;6.50;99.90;;;;;;5111024;28;20607;-58
2022/05/04 04:24:26;;;;;;;11.95;6.07;;;6.70;99.90;;;;;;5110750;28;20215;-58
2022/05/04 04:26:55;;;;;;;17.00;6.50;;;6.90;99.90;;;;;;5111754;28;20214;-60
2022/05/04 04:29:22;;;;;;;10.82;4.88;;;7.00;99.70;;;;;;5112061;28;20250;-58
2022/05/04 04:31:49;;;;;;;11.18;6.28;;;7.10;99.30;;;;;;5111676;28;20584;-57
2022/05/04 04:34:16;;;;;;;10.95;4.78;;;7.20;99.10;;;;;;5110907;28;20230;-61
2022/05/04 04:36:44;;;;;;;21.33;6.05;;;7.30;98.90;;;;;;5110958;28;20199;-59
2022/05/04 04:39:11;;;;;;;9.57;5.13;;;7.50;98.70;;;;;;5111122;28;20195;-60
2022/05/04 04:41:38;;;;;;;18.00;6.20;;;7.70;98.40;;;;;;5110967;28;20200;-60
2022/05/04 04:44:06;;;;;;;7.80;4.47;;;7.80;97.80;;;;;;5110371;28;20219;-60
2022/05/04 04:46:33;;;;;;;10.20;5.28;;;8.00;97.10;;;;;;5110617;28;20713;-59
2022/05/04 04:49:00;;;;;;;11.07;5.30;;;8.00;96.70;;;;;;5110393;28;20215;-59
2022/05/04 04:51:27;;;;;;;9.20;4.40;;;8.20;96.20;;;;;;5110709;28;20214;-59
2022/05/04 04:53:54;;;;;;;8.60;4.60;;;8.30;96.00;;;;;;5110527;28;20234;-59
2022/05/04 04:56:21;;;;;;;9.60;4.18;;;8.30;95.40;;;;;;5109986;28;20694;-61
2022/05/04 04:58:48;;;;;;;9.80;4.35;;;8.40;95.10;;;;;;5110538;28;20199;-59
2022/05/04 05:01:17;;;;;;;7.47;4.80;;;8.60;94.50;;;;;;5110053;28;20607;-59
2022/05/04 05:03:44;;;;;;;8.20;4.63;;;8.70;94.20;;;;;;5110614;28;20225;-59
2022/05/04 05:06:12;;;;;;;10.65;3.97;;;8.90;93.90;;;;;;5110616;28;20451;-58
2022/05/04 05:08:41;;;;;;;9.90;5.07;;;9.10;92.70;;;;;;5122405;28;20274;-59
2022/05/04 05:11:08;;;;;;;18.43;5.00;;;9.10;92.00;;;;;;5130932;28;20504;-59
2022/05/04 05:16:06;;;;;;;9.10;4.50;;;9.20;91.50;;;;;;5130647;28;20507;-59
2022/05/04 05:16:24;;;;;;;14.73;4.40;;;9.30;91.10;;;;;;5130453;28;20487;-59
2022/05/04 05:18:51;;;;;;;8.00;4.50;;;9.30;90.50;;;;;;5129763;28;20424;-58
2022/05/04 05:21:18;;;;;;;10.97;5.33;;;9.30;90.60;;;;;;5116257;28;20444;-59
2022/05/04 05:23:46;;;;;;;12.87;5.13;;;9.40;90.10;;;;;;5116688;28;20500;-59
2022/05/04 05:26:13;;;;;;;13.17;5.10;;;9.40;89.50;;;;;;5116477;28;20882;-59
2022/05/04 05:28:40;;;;;;;10.57;4.00;;;9.60;89.20;;;;;;5116184;28;20945;-59
2022/05/04 05:31:08;;;;;;;12.33;4.50;;;9.70;88.00;;;;;;5117565;28;20452;-59
2022/05/04 05:33:37;;;;;;;8.30;4.27;;;9.80;86.60;;;;;;5116070;28;20469;-58
2022/05/04 05:36:05;;;;;;;11.27;4.23;;;9.90;85.80;;;;;;5115728;28;20504;-58
2022/05/04 05:38:32;;;;;;;9.90;3.87;;;9.90;84.80;;;;;;5115837;28;20990;-59
2022/05/04 05:41:01;;;;;;;10.73;4.40;;;10.00;83.40;;;;;;5116230;28;20894;-59
2022/05/04 05:43:29;;;;;;;8.43;4.13;;;10.10;82.90;;;;;;5116086;28;20461;-58
2022/05/04 05:45:57;;;;;;;12.50;3.77;;;10.20;82.20;;;;;;5114604;28;20446;-61
2022/05/04 05:48:24;;;;;;;10.43;4.60;;;10.20;81.70;;;;;;5115057;28;21080;-59
2022/05/04 05:50:52;;;;;;;19.10;4.37;;;10.30;80.90;;;;;;5115566;28;20470;-59
2022/05/04 05:53:19;;;;;;;11.40;3.70;;;10.30;79.30;;;;;;5115417;28;20956;-60
2022/05/04 05:55:46;;;;;;;13.30;4.40;;;10.10;78.70;;;;;;5115571;28;20956;-60
2022/05/04 05:58:13;;;;;;;11.63;4.80;;;9.90;79.80;;;;;;5112466;28;20465;-61
2022/05/04 06:00:40;;;;;;;12.00;4.40;;;9.70;80.00;;;;;;5114696;28;20453;-63
2022/05/04 06:03:08;;;;;;;8.50;3.30;;;9.70;81.30;;;;;;5119305;28;20941;-65
2022/05/04 06:05:35;;;;;;;8.97;3.90;;;9.70;80.30;;;;;;5118639;28;20465;-64
2022/05/04 06:08:04;;;;;;;6.07;3.50;;;9.70;80.00;;;;;;5119517;28;21002;-64
2022/05/04 06:10:31;;;;;;;10.60;4.23;;;9.70;79.90;;;;;;5120330;28;20454;-62
2022/05/04 06:12:59;;;;;;;10.30;3.67;;;9.70;79.20;;;;;;5116510;28;20450;-61
2022/05/04 06:15:26;;;;;;;12.40;4.20;;;9.70;78.70;;;;;;5114953;28;20476;-62
2022/05/04 06:17:53;;;;;;;10.93;4.32;;;9.70;78.50;;;;;;5115189;28;20448;-62
2022/05/04 06:20:22;;;;;;;13.27;4.30;;;9.70;78.50;;;;;;5115008;28;20729;-62
2022/05/04 06:22:49;;;;;;;12.90;3.65;;;9.70;78.40;;;;;;5115150;28;20452;-62
2022/05/04 06:25:17;;;;;;;7.30;3.40;;;9.80;78.10;;;;;;5115949;28;20217;-62
2022/05/04 06:27:44;;;;;;;10.63;4.07;;;9.90;77.70;;;;;;5115528;28;20477;-62
2022/05/04 06:35:41;;;;;;;9.63;3.67;;;10.50;73.50;;;;;;5113526;28;20434;-60
2022/05/04 06:38:10;;;;;;;10.90;3.37;;;10.70;72.40;;;;;;5115073;28;20478;-61
2022/05/04 06:40:38;;;;;;;12.77;3.60;;;10.80;71.40;;;;;;5114373;28;20446;-61
2022/05/04 06:43:06;;;;;;;9.77;3.80;;;10.90;70.70;;;;;;5113857;28;20321;-61
2022/05/04 06:45:34;;;;;;;10.20;3.73;;;11.00;70.10;;;;;;5113602;28;20445;-59
2022/05/04 06:48:02;;;;;;;7.70;3.70;;;11.20;69.30;;;;;;5114676;28;20930;-61
2022/05/04 06:50:29;;;;;;;14.83;4.37;;;11.40;68.50;;;;;;5114255;28;20467;-63
2022/05/04 06:52:56;;;;;;;8.90;3.30;;;11.60;67.50;;;;;;5114598;28;20450;-62
2022/05/04 06:55:24;;;;;;;9.63;3.40;;;11.60;66.30;;;;;;5113793;28;20457;-60
2022/05/04 06:57:52;;;;;;;8.47;3.80;;;11.60;65.70;;;;;;5113729;28;20458;-59
2022/05/04 07:00:20;;;;;;;9.40;3.37;;;11.70;65.50;;;;;;5114388;27;20983;-61
2022/05/04 07:02:47;;;;;;;8.37;3.17;;;11.90;64.80;;;;;;5114371;28;20944;-61
2022/05/04 07:05:14;;;;;;;6.50;3.20;;;12.10;63.70;;;;;;5113950;28;20518;-60
2022/05/04 07:07:42;;;;;;;11.17;3.60;;;12.20;62.80;;;;;;5113175;28;20464;-60
2022/05/04 07:10:10;;;;;;;11.00;3.60;;;12.30;62.10;;;;;;5115413;28;20457;-61
2022/05/04 07:12:37;;;;;;;9.90;3.30;;;12.40;61.10;;;;;;5114141;28;20472;-61
2022/05/04 07:15:07;;;;;;;7.10;3.10;;;12.40;60.50;;;;;;5113336;28;20491;-61
2022/05/04 07:17:34;;;;;;;6.83;3.07;;;12.30;60.10;;;;;;5113940;28;20532;-60
2022/05/04 07:20:01;;;;;;;5.30;3.40;;;12.20;59.90;;;;;;5113582;28;20944;-61
2022/05/04 07:22:28;;;;;;;8.17;3.43;;;12.10;59.90;;;;;;5114089;28;20978;-61
2022/05/04 07:24:55;;;;;;;4.47;2.97;;;12.10;60.10;;;;;;5115119;28;20465;-60
2022/05/04 07:27:22;;;;;;;9.80;3.57;;;12.10;60.00;;;;;;5113214;28;20791;-60
2022/05/04 07:29:50;;;;;;;13.23;3.30;;;12.10;60.50;;;;;;5113908;28;20481;-61
2022/05/04 07:32:18;;;;;;;9.10;3.47;;;12.20;59.60;;;;;;5113951;28;20442;-61
2022/05/04 07:34:45;;;;;;;7.57;3.17;;;12.30;59.20;;;;;;5114005;28;20966;-62
2022/05/04 07:37:13;;;;;;;7.30;2.80;;;12.50;59.00;;;;;;5113736;28;20994;-61
2022/05/04 07:42:25;;;;;;;7.53;3.63;;;12.60;58.30;;;;;;5113371;28;20570;-62
2022/05/04 07:44:58;;;;;;;8.57;2.80;;;12.70;57.90;;;;;;5113365;28;20548;-62
2022/05/04 07:47:28;;;;;;;7.30;3.70;;;12.70;57.80;;;;;;5113509;28;20448;-60
2022/05/04 07:49:55;;;;;;;8.13;3.40;;;12.70;57.70;;;;;;5112648;28;20476;-60
2022/05/04 07:52:23;;;;;;;8.93;3.17;;;12.80;57.50;;;;;;5113648;28;20443;-60
2022/05/04 07:54:50;;;;;;;4.47;3.27;;;12.80;57.10;;;;;;5113378;28;20470;-61
2022/05/04 07:57:17;;;;;;;8.10;3.47;;;12.70;57.00;;;;;;5112792;28;20534;-62
2022/05/04 08:04:16;;;;;;;7.70;3.37;;;12.80;57.00;;;;;;5113981;28;20449;-61
2022/05/04 08:05:19;;;;;;;8.00;2.63;;;12.90;56.50;;;;;;5112623;28;20477;-62
2022/05/04 08:07:46;;;;;;;5.60;3.10;;;13.00;56.40;;;;;;5113539;28;20465;-59
2022/05/04 08:10:13;;;;;;;11.07;3.40;;;13.10;56.30;;;;;;5112721;28;20481;-60
2022/05/04 08:12:40;;;;;;;6.43;3.10;;;13.20;56.00;;;;;;5113673;28;20446;-62
2022/05/04 08:15:08;;;;;;;11.00;3.30;;;13.30;55.60;;;;;;5113401;28;20571;-60
2022/05/04 08:17:36;;;;;;;4.50;2.90;;;13.30;55.50;;;;;;5112533;28;21149;-59
2022/05/04 08:20:04;;;;;;;6.30;3.10;;;13.40;55.30;;;;;;5113678;28;20507;-59
2022/05/04 08:22:31;;;;;;;8.17;3.07;;;13.60;55.10;;;;;;5113742;28;20948;-61
2022/05/04 08:24:59;;;;;;;6.93;2.83;;;13.70;54.90;;;;;;5112575;28;20467;-61
2022/05/04 08:27:26;;;;;;;5.80;3.37;;;13.80;54.50;;;;;;5113824;28;20447;-60
2022/05/04 08:29:53;;;;;;;6.20;3.00;;;14.00;54.10;;;;;;5113705;28;20476;-59
2022/05/04 08:32:20;;;;;;;8.70;3.70;;;14.10;53.90;;;;;;5112973;28;20474;-56
2022/05/04 08:34:49;;;;;;;4.47;3.00;;;14.10;53.60;;;;;;5113364;28;20470;-60
2022/05/04 08:37:16;;;;;;;4.57;2.93;;;14.20;53.60;;;;;;5113783;28;20436;-60
2022/05/04 08:39:43;;;;;;;7.03;3.60;;;14.30;53.40;;;;;;5112975;28;20462;-60
2022/05/04 08:42:12;;;;;;;7.70;3.17;;;14.30;53.00;;;;;;5112407;28;20447;-61
2022/05/04 08:44:42;;;;;;;8.37;3.47;;;14.20;52.80;;;;;;5113191;28;20999;-60
2022/05/04 08:47:15;;;;;;;6.70;3.33;;;14.30;52.90;;;;;;5113161;28;20501;-61
2022/05/04 08:49:43;;;;;;;6.53;3.23;;;14.30;52.90;;;;;;5112673;28;20990;-60
2022/05/04 08:52:12;;;;;;;8.07;3.43;;;14.30;52.60;;;;;;5113162;28;20449;-61
2022/05/04 08:54:40;;;;;;;9.20;3.50;;;14.20;52.60;;;;;;5113686;28;20472;-60
2022/05/04 08:57:07;;;;;;;7.30;3.40;;;14.10;52.70;;;;;;5116143;28;20540;-60
2022/05/04 08:59:35;;;;;;;4.47;2.77;;;14.10;52.80;;;;;;5116045;28;20517;-60
2022/05/04 09:02:02;;;;;;;11.90;3.20;;;14.20;52.80;;;;;;5116436;28;20454;-59
2022/05/04 09:04:31;;;;;;;6.43;3.23;;;14.40;52.70;;;;;;5116345;28;20470;-58
2022/05/04 09:07:00;;;;;;;7.13;3.43;;;14.60;52.90;;;;;;5115239;28;20476;-60
2022/05/04 09:09:29;;;;;;;8.90;3.33;;;14.70;51.90;;;;;;5116177;28;20540;-58
2022/05/04 09:12:02;;;;;;;9.10;3.87;;;14.80;51.70;;;;;;5116546;28;20520;-60
2022/05/04 09:14:35;;;;;;;9.10;3.10;;;14.80;51.70;;;;;;5116188;28;20465;-59
2022/05/04 09:17:04;;;;;;;9.53;4.17;;;14.90;51.70;;;;;;5114715;28;20448;-60
2022/05/04 09:19:32;;;;;;;6.30;3.33;;;15.00;51.40;;;;;;5115324;28;20952;-59
2022/05/04 09:21:59;;;;;;;8.97;3.67;;;15.10;51.30;;;;;;5116561;28;20506;-57
2022/05/04 09:24:29;;;;;;;7.33;4.17;;;15.10;51.10;;;;;;5135186;22;20511;-59
2022/05/04 09:26:58;;;;;;;5.47;3.63;;;15.30;50.90;;;;;;5080201;28;20439;-60
2022/05/04 09:29:35;;;;;;;8.07;3.73;;;15.30;50.70;;;;;;5075366;28;20474;-60
2022/05/04 09:32:12;;;;;;;6.20;4.17;;;15.30;50.60;;;;;;5076164;28;20427;-61
2022/05/04 09:34:39;;;;;;;8.30;3.80;;;15.40;50.50;;;;;;5075376;28;20474;-60
2022/05/04 09:45:37;;;;;;;10.43;4.10;;;15.50;50.30;;;;;;5079983;28;20870;-60
2022/05/04 09:48:05;;;;;;;7.50;3.97;;;15.60;50.10;;;;;;5087989;28;20930;-59
2022/05/04 09:50:39;;;;;;;9.63;3.90;;;15.60;50.00;;;;;;5095411;28;20989;-59
2022/05/04 09:53:07;;;;;;;8.60;4.30;;;15.70;49.90;;;;;;5080962;28;20480;-61
2022/05/04 09:55:36;;;;;;;10.77;4.07;;;15.70;49.60;;;;;;5093888;28;20477;-60
2022/05/04 09:58:03;;;;;;;6.73;4.37;;;15.70;49.80;;;;;;5095231;28;20844;-60
2022/05/04 10:00:30;;;;;;;6.73;3.90;;;15.70;49.80;;;;;;5093938;28;20461;-60
2022/05/04 10:02:58;;;;;;;9.37;4.27;;;15.70;49.80;;;;;;5094953;28;20539;-59
2022/05/04 10:05:25;;;;;;;5.73;3.50;;;15.80;49.70;;;;;;5094631;28;20493;-60
2022/05/04 10:07:52;;;;;;;7.67;4.23;;;15.80;49.60;;;;;;5093979;28;20446;-61
2022/05/04 10:10:21;;;;;;;5.50;3.57;;;16.00;49.40;;;;;;5074880;28;20978;-59
2022/05/04 10:12:50;;;;;;;7.50;3.93;;;16.00;49.30;;;;;;5073972;28;20447;-60
2022/05/04 10:15:19;;;;;;;7.43;4.30;;;16.00;49.10;;;;;;5074672;28;20467;-60
2022/05/04 10:17:51;;;;;;;9.60;4.30;;;16.10;49.20;;;;;;5074357;28;20927;-59
2022/05/04 10:20:21;;;;;;;6.70;4.13;;;16.10;49.20;;;;;;5074339;28;20427;-59
2022/05/04 10:22:54;;;;;;;7.40;5.00;;;16.10;49.20;;;;;;5074421;28;20564;-59
2022/05/04 10:25:23;;;;;;;10.90;5.10;;;16.30;49.10;;;;;;5074004;28;20479;-59
2022/05/04 10:27:52;;;;;;;9.23;4.57;;;16.50;48.90;;;;;;5074798;28;20939;-60
2022/05/04 10:30:33;;;;;;;8.13;4.77;;;16.60;48.40;;;;;;5073764;28;20483;-60
2022/05/04 10:33:02;;;;;;;6.70;5.47;;;16.60;48.50;;;;;;5073972;28;20423;-59
2022/05/04 10:35:37;;;;;;;8.20;4.10;;;16.50;48.50;;;;;;5073662;28;20467;-59
2022/05/04 10:38:11;;;;;;;10.60;4.13;;;16.70;48.60;;;;;;5074043;28;20434;-59
2022/05/04 10:40:41;;;;;;;10.90;4.73;;;16.90;48.30;;;;;;5074211;28;20424;-60
2022/05/04 10:43:12;;;;;;;10.63;6.70;;;17.10;48.10;;;;;;5074290;28;20471;-59
2022/05/04 10:45:40;;;;;;;8.00;5.07;;;17.20;47.80;;;;;;5073785;28;20481;-59
2022/05/04 10:48:25;;;;;;;6.13;4.10;;;17.30;47.50;;;;;;5074549;28;20447;-59
2022/05/04 10:50:54;;;;;;;8.33;5.27;;;17.40;47.30;;;;;;5076170;28;20479;-59
2022/05/04 10:53:40;;;;;;;7.40;3.93;;;17.50;47.30;;;;;;5073990;28;20451;-60
2022/05/04 10:56:10;;;;;;;9.30;5.77;;;17.60;47.20;;;;;;5073799;28;20458;-59
2022/05/04 10:58:42;;;;;;;6.53;4.80;;;17.90;47.10;;;;;;5073594;28;20454;-59
2022/05/04 11:01:15;;;;;;;8.80;5.10;;;18.10;46.70;;;;;;5074045;28;20434;-60
2022/05/04 11:04:19;;;;;;;7.63;4.90;;;18.10;46.40;;;;;;5074927;28;20996;-61
2022/05/04 11:06:55;;;;;;;10.43;5.30;;;18.20;46.30;;;;;;5073395;28;20450;-61
2022/05/04 11:09:24;;;;;;;9.80;4.47;;;18.30;46.30;;;;;;5073640;28;20423;-59
2022/05/04 11:11:52;;;;;;;7.50;4.00;;;18.30;46.10;;;;;;5074256;28;20486;-60
2022/05/04 11:14:22;;;;;;;12.73;7.03;;;18.30;46.00;;;;;;5073493;28;20981;-61
2022/05/04 11:16:51;;;;;;;6.23;4.90;;;18.40;46.10;;;;;;5073272;28;20443;-60
2022/05/04 11:19:18;;;;;;;8.57;4.90;;;18.60;45.70;;;;;;5073761;28;20478;-61
2022/05/04 11:21:46;;;;;;;8.70;5.13;;;18.70;45.40;;;;;;5073917;28;20841;-60
2022/05/04 11:24:14;;;;;;;6.43;4.37;;;18.50;45.40;;;;;;5073374;28;20463;-59
2022/05/04 11:26:43;;;;;;;10.90;7.60;;;18.30;45.60;;;;;;5073401;28;20505;-60
2022/05/04 11:29:13;;;;;;;10.53;5.03;;;18.40;45.80;;;;;;5072999;28;20842;-60
2022/05/04 11:31:45;;;;;;;8.77;5.30;;;18.50;45.60;;;;;;5072687;28;20475;-59
2022/05/04 11:34:16;;;;;;;10.57;5.03;;;18.80;45.40;;;;;;5072697;28;20529;-60
2022/05/04 11:36:45;;;;;;;10.70;5.40;;;19.00;44.90;;;;;;5072211;28;20533;-59
2022/05/04 11:39:15;;;;;;;7.80;4.63;;;19.20;44.80;;;;;;5072238;28;20471;-60
2022/05/04 11:41:45;;;;;;;9.20;4.90;;;19.30;44.40;;;;;;5071554;28;20860;-60
2022/05/04 11:44:13;;;;;;;7.63;5.00;;;19.30;44.20;;;;;;5072352;28;20227;-59
2022/05/04 11:46:40;;;;;;;7.40;4.70;;;19.40;44.10;;;;;;5072334;28;20939;-59
2022/05/04 11:49:10;;;;;;;10.30;5.43;;;19.70;43.60;;;;;;5071956;28;20447;-60
2022/05/04 11:51:38;;;;;;;7.80;4.97;;;20.00;43.00;;;;;;5072451;28;20467;-60
2022/05/04 11:54:05;;;;;;;8.80;4.83;;;20.40;42.30;;;;;;5072400;28;20446;-61
2022/05/04 11:56:34;;;;;;;9.50;4.73;;;20.90;41.50;;;;;;5072810;28;20872;-60
2022/05/04 11:59:01;;;;;;;10.47;4.90;;;21.30;41.00;;;;;;5072705;28;20439;-60
2022/05/04 12:01:28;;;;;;;9.40;6.33;;;21.70;40.20;;;;;;5072411;28;20439;-59
2022/05/04 12:03:56;;;;;;;10.80;6.20;;;22.00;39.90;;;;;;5072563;28;20450;-60
2022/05/04 12:06:26;;;;;;;6.70;5.20;;;22.30;39.30;;;;;;5072529;28;20554;-60
2022/05/04 12:08:54;;;;;;;8.00;5.17;;;22.50;38.80;;;;;;5073381;28;20450;-61
2022/05/04 12:11:23;;;;;;;5.93;4.77;;;22.70;38.50;;;;;;5073381;28;20478;-60
2022/05/04 12:13:52;;;;;;;10.53;4.77;;;22.70;38.30;;;;;;5071994;28;20958;-60
2022/05/04 12:16:20;;;;;;;10.73;6.10;;;22.70;38.10;;;;;;5072157;28;20469;-60
2022/05/04 12:18:49;;;;;;;7.73;5.10;;;22.90;38.00;;;;;;5072363;28;20457;-60
2022/05/04 12:21:18;;;;;;;8.00;5.40;;;23.00;37.70;;;;;;5072312;28;20822;-60
2022/05/04 12:23:49;;;;;;;9.83;5.43;;;22.70;37.90;;;;;;5072554;28;20443;-60
2022/05/04 12:26:16;;;;;;;11.67;5.93;;;22.40;38.30;;;;;;5072485;28;20478;-61
2022/05/04 12:33:08;;;;;;;8.07;5.40;;;22.20;38.70;;;;;;5072551;28;20434;-60
2022/05/04 12:34:17;;;;;;;6.80;5.53;;;21.80;39.20;;;;;;5076512;28;20462;-60
2022/05/04 12:36:45;;;;;;;13.37;5.80;;;21.70;39.40;;;;;;5076232;28;20966;-60
2022/05/04 12:39:14;;;;;;;6.87;5.30;;;21.30;39.60;;;;;;5076428;28;20482;-62
2022/05/04 12:41:45;;;;;;;12.20;6.43;;;21.20;40.10;;;;;;5076819;28;20439;-60
2022/05/04 12:44:15;;;;;;;9.10;5.93;;;21.10;40.20;;;;;;5076781;28;20459;-59
2022/05/04 12:46:52;;;;;;;10.40;5.60;;;21.00;40.20;;;;;;5076175;28;20447;-60
2022/05/04 12:49:20;;;;;;;9.40;5.93;;;20.80;40.40;;;;;;5076015;28;20513;-60
2022/05/04 12:51:47;;;;;;;9.13;5.63;;;20.70;40.70;;;;;;5075494;28;20489;-60
2022/05/04 12:54:17;;;;;;;9.77;5.80;;;20.70;40.70;;;;;;5075681;28;20501;-60
2022/05/04 12:56:47;;;;;;;8.13;6.37;;;20.70;40.90;;;;;;5075916;28;20451;-60
2022/05/04 12:59:15;;;;;;;8.60;6.00;;;20.60;40.90;;;;;;5075576;28;20454;-60
2022/05/04 13:01:42;;;;;;;8.13;6.60;;;20.40;41.10;;;;;;5075564;28;20474;-60
2022/05/04 13:04:09;;;;;;;7.73;5.70;;;20.40;41.30;;;;;;5075789;28;20470;-60
2022/05/04 13:06:37;;;;;;;10.33;6.23;;;20.40;41.50;;;;;;5075650;28;20466;-61
2022/05/04 13:09:04;;;;;;;8.47;7.00;;;20.60;41.30;;;;;;5075426;28;20485;-60
2022/05/04 13:11:34;;;;;;;7.23;6.50;;;20.70;41.00;;;;;;5075469;28;20478;-60
2022/05/04 13:14:01;;;;;;;11.53;6.27;;;20.80;40.90;;;;;;5075460;28;20446;-60
2022/05/04 13:16:28;;;;;;;10.47;7.10;;;20.80;40.80;;;;;;5075547;28;20442;-60
2022/05/04 13:18:56;;;;;;;9.27;6.70;;;20.90;40.70;;;;;;5075178;28;20447;-59
2022/05/04 13:21:23;;;;;;;13.73;7.70;;;20.70;40.50;;;;;;5076014;28;20526;-60
2022/05/04 13:23:50;;;;;;;8.03;6.50;;;20.60;40.80;;;;;;5076427;28;20541;-60
2022/05/04 13:26:18;;;;;;;11.77;6.83;;;20.70;40.90;;;;;;5075497;28;20529;-60